sensor_id;sensor_type;location;lat;lon;timestamp;pressure;altitude;pressure_sealevel;temperature;humidity
29121;BME280;16191;49.548;8.658;2022-09-01T00:01:48;100646.19;;;17.79;88.71
29121;BME280;16191;49.548;8.658;2022-09-01T00:04:19;100643.53;;;17.79;88.83
29121;BME280;16191;49.548;8.658;2022-09-01T00:06:47;100631.38;;;17.76;89.14
29121;BME280;16191;49.548;8.658;2022-09-01T00:09:17;100640.06;;;17.78;88.92
29121;BME280;16191;49.548;8.658;2022-09-01T00:11:47;100639.72;;;17.70;89.80
29121;BME280;16191;49.548;8.658;2022-09-01T00:14:38;100627.91;;;17.76;89.29
29121;BME280;16191;49.548;8.658;2022-09-01T00:17:27;100630.09;;;17.69;89.98
29121;BME280;16191;49.548;8.658;2022-09-01T00:20:13;100642.56;;;17.67;90.54
29121;BME280;16191;49.548;8.658;2022-09-01T00:23:05;100625.03;;;17.66;90.77
29121;BME280;16191;49.548;8.658;2022-09-01T00:25:52;100638.56;;;17.60;91.93
29121;BME280;16191;49.548;8.658;2022-09-01T00:28:40;100637.47;;;17.64;91.69
29121;BME280;16191;49.548;8.658;2022-09-01T00:31:08;100636.03;;;17.59;92.31
29121;BME280;16191;49.548;8.658;2022-09-01T00:33:37;100630.66;;;17.60;92.84
29121;BME280;16191;49.548;8.658;2022-09-01T00:36:04;100622.41;;;17.52;93.40
29121;BME280;16191;49.548;8.658;2022-09-01T00:38:32;100619.75;;;17.52;93.77
29121;BME280;16191;49.548;8.658;2022-09-01T00:40:59;100625.03;;;17.52;93.96
29121;BME280;16191;49.548;8.658;2022-09-01T00:46:19;100618.53;;;17.43;95.04
29121;BME280;16191;49.548;8.658;2022-09-01T00:48:52;100619.19;;;17.47;94.91
29121;BME280;16191;49.548;8.658;2022-09-01T00:51:20;100616.66;;;17.45;95.07
29121;BME280;16191;49.548;8.658;2022-09-01T00:53:48;100619.28;;;17.45;94.86
29121;BME280;16191;49.548;8.658;2022-09-01T00:56:15;100620.50;;;17.40;95.73
29121;BME280;16191;49.548;8.658;2022-09-01T00:58:43;100615.25;;;17.40;95.99
29121;BME280;16191;49.548;8.658;2022-09-01T01:01:10;100613.53;;;17.39;96.19
29121;BME280;16191;49.548;8.658;2022-09-01T01:03:38;100616.94;;;17.41;96.55
29121;BME280;16191;49.548;8.658;2022-09-01T01:06:08;100614.50;;;17.38;96.96
29121;BME280;16191;49.548;8.658;2022-09-01T01:08:39;100617.31;;;17.35;97.79
29121;BME280;16191;49.548;8.658;2022-09-01T01:11:09;100611.84;;;17.38;98.02
29121;BME280;16191;49.548;8.658;2022-09-01T01:16:16;100617.72;;;17.29;98.94
29121;BME280;16191;49.548;8.658;2022-09-01T01:18:43;100625.31;;;17.33;98.89
29121;BME280;16191;49.548;8.658;2022-09-01T01:21:17;100625.22;;;17.35;98.70
29121;BME280;16191;49.548;8.658;2022-09-01T01:24:15;100622.69;;;17.33;98.98
29121;BME280;16191;49.548;8.658;2022-09-01T01:26:44;100627.97;;;17.33;99.26
29121;BME280;16191;49.548;8.658;2022-09-01T01:29:11;100630.72;;;17.32;99.75
29121;BME280;16191;49.548;8.658;2022-09-01T01:31:38;100625.03;;;17.38;98.87
29121;BME280;16191;49.548;8.658;2022-09-01T01:34:05;100629.47;;;17.37;99.57
29121;BME280;16191;49.548;8.658;2022-09-01T01:36:35;100623.75;;;17.31;100.00
29121;BME280;16191;49.548;8.658;2022-09-01T01:39:11;100618.34;;;17.32;100.00
29121;BME280;16191;49.548;8.658;2022-09-01T01:41:42;100616.88;;;17.28;100.00
29121;BME280;16191;49.548;8.658;2022-09-01T01:44:12;100624.47;;;17.33;100.00
29121;BME280;16191;49.548;8.658;2022-09-01T01:46:42;100624.47;;;17.33;100.00
29121;BME280;16191;49.548;8.658;2022-09-01T01:49:10;100629.03;;;17.31;100.00
29121;BME280;16191;49.548;8.658;2022-09-01T01:51:40;100621.22;;;17.29;100.00
29121;BME280;16191;49.548;8.658;2022-09-01T01:54:07;100626.66;;;17.26;100.00
29121;BME280;16191;49.548;8.658;2022-09-01T01:56:34;100623.56;;;17.20;100.00
29121;BME280;16191;49.548;8.658;2022-09-01T01:59:04;100626.94;;;17.22;100.00
29121;BME280;16191;49.548;8.658;2022-09-01T02:01:34;100631.84;;;17.28;100.00
29121;BME280;16191;49.548;8.658;2022-09-01T02:04:02;100633.13;;;17.35;100.00
29121;BME280;16191;49.548;8.658;2022-09-01T02:06:33;100629.03;;;17.31;100.00
29121;BME280;16191;49.548;8.658;2022-09-01T02:09:01;100629.75;;;17.33;100.00
29121;BME280;16191;49.548;8.658;2022-09-01T02:11:30;100635.44;;;17.27;100.00
29121;BME280;16191;49.548;8.658;2022-09-01T02:13:59;100642.88;;;17.20;100.00
29121;BME280;16191;49.548;8.658;2022-09-01T02:16:28;100636.56;;;17.23;100.00
29121;BME280;16191;49.548;8.658;2022-09-01T02:19:00;100631.47;;;17.20;100.00
29121;BME280;16191;49.548;8.658;2022-09-01T02:21:28;100632.50;;;17.17;100.00
29121;BME280;16191;49.548;8.658;2022-09-01T02:23:58;100638.91;;;17.13;100.00
29121;BME280;16191;49.548;8.658;2022-09-01T02:29:02;100632.16;;;17.09;100.00
29121;BME280;16191;49.548;8.658;2022-09-01T02:31:32;100635.41;;;17.12;100.00
29121;BME280;16191;49.548;8.658;2022-09-01T02:34:01;100631.38;;;17.07;100.00
29121;BME280;16191;49.548;8.658;2022-09-01T02:36:30;100638.44;;;17.06;100.00
29121;BME280;16191;49.548;8.658;2022-09-01T02:39:03;100630.44;;;17.08;100.00
29121;BME280;16191;49.548;8.658;2022-09-01T02:41:33;100631.38;;;17.07;100.00
29121;BME280;16191;49.548;8.658;2022-09-01T02:44:02;100628.94;;;17.04;100.00
29121;BME280;16191;49.548;8.658;2022-09-01T02:46:30;100631.28;;;16.94;100.00
29121;BME280;16191;49.548;8.658;2022-09-01T02:48:57;100627.69;;;16.95;100.00
29121;BME280;16191;49.548;8.658;2022-09-01T02:51:26;100628.28;;;16.86;100.00
29121;BME280;16191;49.548;8.658;2022-09-01T02:53:53;100629.31;;;16.84;100.00
29121;BME280;16191;49.548;8.658;2022-09-01T02:56:23;100631.00;;;16.85;100.00
29121;BME280;16191;49.548;8.658;2022-09-01T02:58:52;100627.34;;;16.87;100.00
29121;BME280;16191;49.548;8.658;2022-09-01T03:01:24;100629.22;;;16.85;100.00
29121;BME280;16191;49.548;8.658;2022-09-01T03:03:56;100630.06;;;16.86;100.00
29121;BME280;16191;49.548;8.658;2022-09-01T03:06:23;100634.66;;;16.82;100.00
29121;BME280;16191;49.548;8.658;2022-09-01T03:08:54;100635.44;;;16.84;100.00
29121;BME280;16191;49.548;8.658;2022-09-01T03:11:22;100636.72;;;16.77;100.00
29121;BME280;16191;49.548;8.658;2022-09-01T03:13:50;100640.13;;;16.65;100.00
29121;BME280;16191;49.548;8.658;2022-09-01T03:16:17;100638.13;;;16.68;100.00
29121;BME280;16191;49.548;8.658;2022-09-01T03:18:44;100639.06;;;16.67;100.00
29121;BME280;16191;49.548;8.658;2022-09-01T03:21:11;100635.09;;;16.60;100.00
29121;BME280;16191;49.548;8.658;2022-09-01T03:23:47;100630.00;;;16.57;100.00
29121;BME280;16191;49.548;8.658;2022-09-01T03:26:15;100628.56;;;16.52;100.00
29121;BME280;16191;49.548;8.658;2022-09-01T03:28:45;100627.03;;;16.48;100.00
29121;BME280;16191;49.548;8.658;2022-09-01T03:31:13;100631.75;;;16.42;100.00
29121;BME280;16191;49.548;8.658;2022-09-01T03:33:41;100635.03;;;16.46;100.00
29121;BME280;16191;49.548;8.658;2022-09-01T03:36:15;100637.78;;;16.44;100.00
29121;BME280;16191;49.548;8.658;2022-09-01T03:38:46;100633.81;;;16.37;100.00
29121;BME280;16191;49.548;8.658;2022-09-01T03:41:17;100638.41;;;16.34;100.00
29121;BME280;16191;49.548;8.658;2022-09-01T03:43:45;100638.91;;;16.25;100.00
29121;BME280;16191;49.548;8.658;2022-09-01T03:46:15;100636.88;;;16.30;100.00
29121;BME280;16191;49.548;8.658;2022-09-01T03:48:51;100638.44;;;16.18;100.00
29121;BME280;16191;49.548;8.658;2022-09-01T03:51:19;100633.53;;;16.12;100.00
29121;BME280;16191;49.548;8.658;2022-09-01T03:53:50;100631.06;;;16.09;100.00
29121;BME280;16191;49.548;8.658;2022-09-01T03:56:22;100633.44;;;16.14;100.00
29121;BME280;16191;49.548;8.658;2022-09-01T03:58:51;100635.91;;;16.17;100.00
29121;BME280;16191;49.548;8.658;2022-09-01T04:01:18;100638.13;;;16.08;100.00
29121;BME280;16191;49.548;8.658;2022-09-01T04:03:45;100638.38;;;16.04;100.00
29121;BME280;16191;49.548;8.658;2022-09-01T04:06:18;100640.34;;;16.00;100.00
29121;BME280;16191;49.548;8.658;2022-09-01T04:08:46;100637.72;;;16.00;100.00
29121;BME280;16191;49.548;8.658;2022-09-01T04:11:17;100636.09;;;15.98;100.00
29121;BME280;16191;49.548;8.658;2022-09-01T04:13:46;100635.00;;;15.86;100.00
29121;BME280;16191;49.548;8.658;2022-09-01T04:16:18;100636.78;;;15.86;100.00
29121;BME280;16191;49.548;8.658;2022-09-01T04:19:05;100633.47;;;15.82;100.00
29121;BME280;16191;49.548;8.658;2022-09-01T04:21:42;100635.25;;;15.82;100.00
29121;BME280;16191;49.548;8.658;2022-09-01T04:24:11;100635.47;;;15.79;100.00
29121;BME280;16191;49.548;8.658;2022-09-01T04:26:41;100634.41;;;15.81;100.00
29121;BME280;16191;49.548;8.658;2022-09-01T04:29:08;100637.31;;;15.76;100.00
29121;BME280;16191;49.548;8.658;2022-09-01T04:31:38;100634.00;;;15.73;100.00
29121;BME280;16191;49.548;8.658;2022-09-01T04:34:06;100638.25;;;15.75;100.00
29121;BME280;16191;49.548;8.658;2022-09-01T04:36:37;100642.16;;;15.68;100.00
29121;BME280;16191;49.548;8.658;2022-09-01T04:39:07;100638.66;;;15.68;100.00
29121;BME280;16191;49.548;8.658;2022-09-01T04:41:42;100640.88;;;15.60;100.00
29121;BME280;16191;49.548;8.658;2022-09-01T04:44:13;100641.84;;;15.59;100.00
29121;BME280;16191;49.548;8.658;2022-09-01T04:46:42;100642.91;;;15.55;100.00
29121;BME280;16191;49.548;8.658;2022-09-01T04:49:13;100642.97;;;15.53;100.00
29121;BME280;16191;49.548;8.658;2022-09-01T04:51:49;100643.91;;;15.52;100.00
29121;BME280;16191;49.548;8.658;2022-09-01T04:54:21;100650.75;;;15.39;100.00
29121;BME280;16191;49.548;8.658;2022-09-01T04:56:49;100644.47;;;15.41;100.00
29121;BME280;16191;49.548;8.658;2022-09-01T04:59:21;100645.94;;;15.47;100.00
29121;BME280;16191;49.548;8.658;2022-09-01T05:01:52;100647.97;;;15.42;100.00
29121;BME280;16191;49.548;8.658;2022-09-01T05:04:25;100641.69;;;15.44;100.00
29121;BME280;16191;49.548;8.658;2022-09-01T05:06:55;100642.97;;;15.53;100.00
29121;BME280;16191;49.548;8.658;2022-09-01T05:09:31;100642.97;;;15.53;100.00
29121;BME280;16191;49.548;8.658;2022-09-01T05:12:08;100640.25;;;15.55;100.00
29121;BME280;16191;49.548;8.658;2022-09-01T05:14:45;100643.91;;;15.52;100.00
29121;BME280;16191;49.548;8.658;2022-09-01T05:17:16;100648.56;;;15.47;100.00
29121;BME280;16191;49.548;8.658;2022-09-01T05:19:47;100647.38;;;15.53;100.00
29121;BME280;16191;49.548;8.658;2022-09-01T05:22:14;100644.00;;;15.51;100.00
29121;BME280;16191;49.548;8.658;2022-09-01T05:24:51;100647.31;;;15.54;100.00
29121;BME280;16191;49.548;8.658;2022-09-01T05:27:21;100645.47;;;15.56;100.00
29121;BME280;16191;49.548;8.658;2022-09-01T05:29:48;100643.22;;;15.49;100.00
29121;BME280;16191;49.548;8.658;2022-09-01T05:32:15;100650.78;;;15.55;100.00
29121;BME280;16191;49.548;8.658;2022-09-01T05:34:43;100652.13;;;15.46;100.00
29121;BME280;16191;49.548;8.658;2022-09-01T05:37:11;100650.72;;;15.56;100.00
29121;BME280;16191;49.548;8.658;2022-09-01T05:39:39;100649.34;;;15.65;100.00
29121;BME280;16191;49.548;8.658;2022-09-01T05:42:06;100655.91;;;15.73;100.00
29121;BME280;16191;49.548;8.658;2022-09-01T05:44:38;100645.69;;;15.83;100.00
29121;BME280;16191;49.548;8.658;2022-09-01T05:47:10;100641.78;;;15.90;100.00
29121;BME280;16191;49.548;8.658;2022-09-01T05:49:49;100646.03;;;15.93;100.00
29121;BME280;16191;49.548;8.658;2022-09-01T05:52:16;100643.72;;;16.02;100.00
29121;BME280;16191;49.548;8.658;2022-09-01T05:54:44;100646.69;;;16.12;100.00
29121;BME280;16191;49.548;8.658;2022-09-01T05:57:19;100654.16;;;16.20;100.00
29121;BME280;16191;49.548;8.658;2022-09-01T06:00:05;100651.47;;;16.35;100.00
29121;BME280;16191;49.548;8.658;2022-09-01T06:02:41;100654.59;;;16.42;100.00
29121;BME280;16191;49.548;8.658;2022-09-01T06:05:14;100652.34;;;16.50;100.00
29121;BME280;16191;49.548;8.658;2022-09-01T06:07:42;100651.91;;;16.58;100.00
29121;BME280;16191;49.548;8.658;2022-09-01T06:10:10;100659.09;;;16.70;100.00
29121;BME280;16191;49.548;8.658;2022-09-01T06:12:39;100656.69;;;16.81;100.00
29121;BME280;16191;49.548;8.658;2022-09-01T06:15:07;100661.59;;;16.87;100.00
29121;BME280;16191;49.548;8.658;2022-09-01T06:17:45;100652.47;;;16.93;100.00
29121;BME280;16191;49.548;8.658;2022-09-01T06:20:13;100662.19;;;17.06;100.00
29121;BME280;16191;49.548;8.658;2022-09-01T06:22:44;100662.00;;;17.09;100.00
29121;BME280;16191;49.548;8.658;2022-09-01T06:25:11;100657.00;;;17.19;100.00
29121;BME280;16191;49.548;8.658;2022-09-01T06:27:41;100652.84;;;17.29;100.00
29121;BME280;16191;49.548;8.658;2022-09-01T06:30:11;100653.22;;;17.37;100.00
29121;BME280;16191;49.548;8.658;2022-09-01T06:32:53;100646.53;;;17.46;100.00
29121;BME280;16191;49.548;8.658;2022-09-01T06:35:21;100656.28;;;17.58;100.00
29121;BME280;16191;49.548;8.658;2022-09-01T06:37:56;100657.44;;;17.68;100.00
29121;BME280;16191;49.548;8.658;2022-09-01T06:40:34;100656.41;;;17.71;100.00
29121;BME280;16191;49.548;8.658;2022-09-01T06:43:01;100647.59;;;17.85;100.00
29121;BME280;16191;49.548;8.658;2022-09-01T06:45:43;100643.91;;;17.87;100.00
29121;BME280;16191;49.548;8.658;2022-09-01T06:48:10;100645.22;;;17.94;100.00
29121;BME280;16191;49.548;8.658;2022-09-01T06:50:42;100650.72;;;18.04;100.00
29121;BME280;16191;49.548;8.658;2022-09-01T06:53:30;100651.72;;;18.15;100.00
29121;BME280;16191;49.548;8.658;2022-09-01T06:56:01;100649.00;;;18.30;100.00
29121;BME280;16191;49.548;8.658;2022-09-01T06:58:29;100647.22;;;18.30;100.00
29121;BME280;16191;49.548;8.658;2022-09-01T07:00:56;100654.84;;;18.35;100.00
29121;BME280;16191;49.548;8.658;2022-09-01T07:03:24;100647.88;;;18.46;100.00
29121;BME280;16191;49.548;8.658;2022-09-01T07:05:58;100653.66;;;18.66;100.00
29121;BME280;16191;49.548;8.658;2022-09-01T07:08:48;100659.81;;;18.79;100.00
29121;BME280;16191;49.548;8.658;2022-09-01T07:11:45;100664.44;;;18.88;98.06
29121;BME280;16191;49.548;8.658;2022-09-01T07:14:32;100659.38;;;19.10;98.23
29121;BME280;16191;49.548;8.658;2022-09-01T07:16:59;100669.75;;;19.13;99.63
29121;BME280;16191;49.548;8.658;2022-09-01T07:19:46;100672.19;;;19.04;100.00
29121;BME280;16191;49.548;8.658;2022-09-01T07:22:14;100671.09;;;19.06;100.00
29121;BME280;16191;49.548;8.658;2022-09-01T07:25:01;100665.31;;;19.27;100.00
29121;BME280;16191;49.548;8.658;2022-09-01T07:28:15;100678.63;;;19.25;99.87
29121;BME280;16191;49.548;8.658;2022-09-01T07:30:48;100681.16;;;19.39;100.00
29121;BME280;16191;49.548;8.658;2022-09-01T07:33:20;100680.63;;;19.47;94.40
29121;BME280;16191;49.548;8.658;2022-09-01T07:36:09;100672.25;;;19.53;89.87
29121;BME280;16191;49.548;8.658;2022-09-01T07:38:53;100675.22;;;19.61;89.15
29121;BME280;16191;49.548;8.658;2022-09-01T07:41:49;100670.66;;;19.63;88.33
29121;BME280;16191;49.548;8.658;2022-09-01T07:45:14;100678.34;;;19.79;86.62
29121;BME280;16191;49.548;8.658;2022-09-01T07:48:00;100668.66;;;19.91;85.74
29121;BME280;16191;49.548;8.658;2022-09-01T07:50:41;100676.44;;;20.05;84.83
29121;BME280;16191;49.548;8.658;2022-09-01T07:53:34;100675.88;;;20.12;83.60
29121;BME280;16191;49.548;8.658;2022-09-01T07:56:09;100675.66;;;20.39;82.93
29121;BME280;16191;49.548;8.658;2022-09-01T07:58:41;100673.50;;;20.44;81.53
29121;BME280;16191;49.548;8.658;2022-09-01T08:01:27;100673.72;;;20.41;82.11
29121;BME280;16191;49.548;8.658;2022-09-01T08:03:57;100678.34;;;20.50;81.72
29121;BME280;16191;49.548;8.658;2022-09-01T08:06:26;100683.53;;;20.52;81.44
29121;BME280;16191;49.548;8.658;2022-09-01T08:08:57;100685.47;;;20.96;78.85
29121;BME280;16191;49.548;8.658;2022-09-01T08:11:28;100686.19;;;21.09;77.46
29121;BME280;16191;49.548;8.658;2022-09-01T08:14:16;100683.31;;;21.12;77.03
29121;BME280;16191;49.548;8.658;2022-09-01T08:16:44;100683.59;;;21.32;75.76
29121;BME280;16191;49.548;8.658;2022-09-01T08:19:19;100679.09;;;21.54;74.77
29121;BME280;16191;49.548;8.658;2022-09-01T08:22:09;100683.78;;;21.73;73.47
29121;BME280;16191;49.548;8.658;2022-09-01T08:24:54;100684.06;;;22.25;70.72
29121;BME280;16191;49.548;8.658;2022-09-01T08:27:21;100682.50;;;22.11;71.33
29121;BME280;16191;49.548;8.658;2022-09-01T08:29:48;100688.44;;;22.14;71.01
29121;BME280;16191;49.548;8.658;2022-09-01T08:32:15;100687.34;;;22.17;70.65
29121;BME280;16191;49.548;8.658;2022-09-01T08:34:42;100683.28;;;22.54;68.22
29121;BME280;16191;49.548;8.658;2022-09-01T08:37:09;100680.91;;;22.51;67.29
29121;BME280;16191;49.548;8.658;2022-09-01T08:39:37;100680.34;;;22.69;67.12
29121;BME280;16191;49.548;8.658;2022-09-01T08:42:10;100690.25;;;22.67;65.85
29121;BME280;16191;49.548;8.658;2022-09-01T08:44:55;100689.63;;;22.95;64.37
29121;BME280;16191;49.548;8.658;2022-09-01T08:47:25;100686.19;;;23.04;63.25
29121;BME280;16191;49.548;8.658;2022-09-01T08:50:05;100690.84;;;23.12;62.68
29121;BME280;16191;49.548;8.658;2022-09-01T08:53:35;100686.91;;;23.06;62.30
29121;BME280;16191;49.548;8.658;2022-09-01T08:56:04;100683.06;;;22.99;63.36
29121;BME280;16191;49.548;8.658;2022-09-01T08:58:31;100688.59;;;23.07;62.77
29121;BME280;16191;49.548;8.658;2022-09-01T09:01:53;100681.56;;;23.06;61.73
29121;BME280;16191;49.548;8.658;2022-09-01T09:09:54;100677.16;;;23.16;60.71
29121;BME280;16191;49.548;8.658;2022-09-01T09:15:26;100676.09;;;23.59;58.18
29121;BME280;16191;49.548;8.658;2022-09-01T09:18:12;100679.88;;;23.56;58.08
29121;BME280;16191;49.548;8.658;2022-09-01T09:21:32;100670.19;;;23.65;57.08
29121;BME280;16191;49.548;8.658;2022-09-01T09:24:30;100679.38;;;23.91;57.17
29121;BME280;16191;49.548;8.658;2022-09-01T09:27:27;100675.56;;;23.75;57.48
29121;BME280;16191;49.548;8.658;2022-09-01T09:30:05;100669.75;;;23.60;57.20
29121;BME280;16191;49.548;8.658;2022-09-01T09:35:49;100666.81;;;23.63;57.55
29121;BME280;16191;49.548;8.658;2022-09-01T09:38:22;100654.69;;;24.09;55.76
29121;BME280;16191;49.548;8.658;2022-09-01T09:43:53;100663.94;;;23.85;55.61
29121;BME280;16191;49.548;8.658;2022-09-01T09:46:33;100670.00;;;23.97;53.23
29121;BME280;16191;49.548;8.658;2022-09-01T09:49:20;100664.19;;;23.73;54.85
29121;BME280;16191;49.548;8.658;2022-09-01T09:54:31;100664.50;;;23.79;53.98
29121;BME280;16191;49.548;8.658;2022-09-01T09:59:41;100653.16;;;23.47;56.99
29121;BME280;16191;49.548;8.658;2022-09-01T10:02:38;100662.81;;;23.08;60.29
29121;BME280;16191;49.548;8.658;2022-09-01T10:05:34;100648.94;;;23.35;62.13
29121;BME280;16191;49.548;8.658;2022-09-01T10:08:03;100652.13;;;23.59;62.86
29121;BME280;16191;49.548;8.658;2022-09-01T10:13:10;100646.66;;;23.70;60.24
29121;BME280;16191;49.548;8.658;2022-09-01T10:15:43;100647.94;;;23.76;60.07
29121;BME280;16191;49.548;8.658;2022-09-01T10:18:19;100642.19;;;23.71;59.39
29121;BME280;16191;49.548;8.658;2022-09-01T10:21:08;100637.72;;;23.81;60.36
29121;BME280;16191;49.548;8.658;2022-09-01T10:23:36;100631.56;;;24.09;59.27
29121;BME280;16191;49.548;8.658;2022-09-01T10:26:16;100623.84;;;24.16;59.81
29121;BME280;16191;49.548;8.658;2022-09-01T10:28:57;100634.75;;;23.84;58.72
29121;BME280;16191;49.548;8.658;2022-09-01T10:31:28;100631.09;;;23.66;56.77
29121;BME280;16191;49.548;8.658;2022-09-01T10:34:00;100637.06;;;24.27;56.56
29121;BME280;16191;49.548;8.658;2022-09-01T10:36:33;100629.59;;;24.50;54.45
29121;BME280;16191;49.548;8.658;2022-09-01T10:39:03;100625.94;;;24.60;54.67
29121;BME280;16191;49.548;8.658;2022-09-01T10:41:43;100629.31;;;24.63;53.72
29121;BME280;16191;49.548;8.658;2022-09-01T10:44:18;100625.00;;;25.08;50.90
29121;BME280;16191;49.548;8.658;2022-09-01T10:46:45;100631.13;;;24.62;51.03
29121;BME280;16191;49.548;8.658;2022-09-01T10:49:19;100626.50;;;24.54;49.75
29121;BME280;16191;49.548;8.658;2022-09-01T10:51:54;100631.38;;;24.69;49.90
29121;BME280;16191;49.548;8.658;2022-09-01T11:06:04;100629.09;;;26.03;46.93
29121;BME280;16191;49.548;8.658;2022-09-01T11:08:44;100617.88;;;26.17;45.88
29121;BME280;16191;49.548;8.658;2022-09-01T11:11:30;100615.41;;;25.88;45.43
29121;BME280;16191;49.548;8.658;2022-09-01T11:14:00;100619.91;;;25.70;46.65
29121;BME280;16191;49.548;8.658;2022-09-01T11:16:34;100612.22;;;26.63;44.13
29121;BME280;16191;49.548;8.658;2022-09-01T11:22:23;100611.50;;;27.05;41.38
29121;BME280;16191;49.548;8.658;2022-09-01T11:28:08;100598.22;;;27.88;41.44
29121;BME280;16191;49.548;8.658;2022-09-01T11:30:39;100594.56;;;28.54;39.95
29121;BME280;16191;49.548;8.658;2022-09-01T11:35:44;100592.19;;;28.18;40.28
29121;BME280;16191;49.548;8.658;2022-09-01T11:38:14;100600.50;;;27.58;41.07
29121;BME280;16191;49.548;8.658;2022-09-01T11:40:41;100598.91;;;26.98;41.89
29121;BME280;16191;49.548;8.658;2022-09-01T11:43:13;100604.88;;;26.66;42.79
29121;BME280;16191;49.548;8.658;2022-09-01T11:46:13;100599.31;;;26.33;43.03
29121;BME280;16191;49.548;8.658;2022-09-01T11:48:46;100594.69;;;26.25;43.88
29121;BME280;16191;49.548;8.658;2022-09-01T11:51:17;100593.03;;;26.07;44.11
29121;BME280;16191;49.548;8.658;2022-09-01T11:53:44;100588.69;;;25.88;43.69
29121;BME280;16191;49.548;8.658;2022-09-01T11:56:23;100596.31;;;26.01;43.66
29121;BME280;16191;49.548;8.658;2022-09-01T11:58:53;100584.28;;;27.68;41.47
29121;BME280;16191;49.548;8.658;2022-09-01T12:01:32;100572.56;;;27.69;40.46
29121;BME280;16191;49.548;8.658;2022-09-01T12:04:22;100586.63;;;27.79;40.82
29121;BME280;16191;49.548;8.658;2022-09-01T12:06:59;100574.56;;;27.75;40.42
29121;BME280;16191;49.548;8.658;2022-09-01T12:09:33;100571.69;;;27.60;39.98
29121;BME280;16191;49.548;8.658;2022-09-01T12:12:01;100568.22;;;28.09;40.35
29121;BME280;16191;49.548;8.658;2022-09-01T12:14:28;100568.22;;;28.41;39.60
29121;BME280;16191;49.548;8.658;2022-09-01T12:17:19;100555.28;;;29.08;38.72
29121;BME280;16191;49.548;8.658;2022-09-01T12:19:46;100566.03;;;29.16;38.36
29121;BME280;16191;49.548;8.658;2022-09-01T12:22:17;100554.63;;;29.68;38.05
29121;BME280;16191;49.548;8.658;2022-09-01T12:24:48;100545.19;;;30.18;36.98
29121;BME280;16191;49.548;8.658;2022-09-01T12:27:15;100550.56;;;30.18;36.59
29121;BME280;16191;49.548;8.658;2022-09-01T12:29:42;100547.31;;;31.04;34.88
29121;BME280;16191;49.548;8.658;2022-09-01T12:32:09;100555.03;;;31.07;36.49
29121;BME280;16191;49.548;8.658;2022-09-01T12:34:43;100551.09;;;31.39;33.97
29121;BME280;16191;49.548;8.658;2022-09-01T12:39:42;100536.97;;;31.58;32.95
29121;BME280;16191;49.548;8.658;2022-09-01T12:44:48;100545.03;;;29.12;36.86
29121;BME280;16191;49.548;8.658;2022-09-01T12:53:00;100548.19;;;28.76;37.38
29121;BME280;16191;49.548;8.658;2022-09-01T12:55:32;100544.81;;;28.82;37.60
29121;BME280;16191;49.548;8.658;2022-09-01T12:58:20;100543.00;;;28.58;37.45
29121;BME280;16191;49.548;8.658;2022-09-01T13:03:21;100544.06;;;28.49;37.98
29121;BME280;16191;49.548;8.658;2022-09-01T13:05:52;100536.16;;;28.15;38.96
29121;BME280;16191;49.548;8.658;2022-09-01T13:08:22;100541.88;;;28.45;38.33
29121;BME280;16191;49.548;8.658;2022-09-01T13:11:08;100545.19;;;29.18;37.91
29121;BME280;16191;49.548;8.658;2022-09-01T13:13:37;100540.91;;;29.32;36.78
29121;BME280;16191;49.548;8.658;2022-09-01T13:16:05;100543.16;;;28.73;37.44
29121;BME280;16191;49.548;8.658;2022-09-01T13:18:40;100542.88;;;28.19;38.51
29121;BME280;16191;49.548;8.658;2022-09-01T13:21:28;100536.88;;;28.09;38.66
29121;BME280;16191;49.548;8.658;2022-09-01T13:23:56;100534.69;;;28.21;39.35
29121;BME280;16191;49.548;8.658;2022-09-01T13:26:25;100539.03;;;27.81;39.47
29121;BME280;16191;49.548;8.658;2022-09-01T13:28:52;100524.44;;;28.00;38.86
29121;BME280;16191;49.548;8.658;2022-09-01T13:31:19;100523.97;;;27.88;39.50
29121;BME280;16191;49.548;8.658;2022-09-01T13:33:55;100528.97;;;28.40;38.42
29121;BME280;16191;49.548;8.658;2022-09-01T13:36:42;100527.09;;;28.57;38.01
29121;BME280;16191;49.548;8.658;2022-09-01T13:39:14;100515.38;;;29.82;36.54
29121;BME280;16191;49.548;8.658;2022-09-01T13:41:41;100513.56;;;30.20;34.94
29121;BME280;16191;49.548;8.658;2022-09-01T13:44:08;100508.09;;;31.16;34.04
29121;BME280;16191;49.548;8.658;2022-09-01T13:46:36;100512.28;;;30.45;33.97
29121;BME280;16191;49.548;8.658;2022-09-01T13:49:23;100507.66;;;31.13;33.20
29121;BME280;16191;49.548;8.658;2022-09-01T13:52:11;100506.22;;;31.02;34.00
29121;BME280;16191;49.548;8.658;2022-09-01T13:54:38;100507.59;;;30.10;35.63
29121;BME280;16191;49.548;8.658;2022-09-01T13:57:08;100504.50;;;29.75;35.02
29121;BME280;16191;49.548;8.658;2022-09-01T13:59:35;100501.25;;;29.65;33.86
29121;BME280;16191;49.548;8.658;2022-09-01T14:02:01;100507.94;;;29.38;35.60
29121;BME280;16191;49.548;8.658;2022-09-01T14:04:29;100505.25;;;29.38;35.01
29121;BME280;16191;49.548;8.658;2022-09-01T14:06:55;100500.09;;;29.28;36.15
29121;BME280;16191;49.548;8.658;2022-09-01T14:09:24;100504.06;;;29.10;35.83
29121;BME280;16191;49.548;8.658;2022-09-01T14:11:54;100504.91;;;29.10;36.02
29121;BME280;16191;49.548;8.658;2022-09-01T14:14:21;100503.56;;;28.67;36.57
29121;BME280;16191;49.548;8.658;2022-09-01T14:16:48;100497.84;;;28.70;36.20
29121;BME280;16191;49.548;8.658;2022-09-01T14:19:15;100504.53;;;28.74;37.09
29121;BME280;16191;49.548;8.658;2022-09-01T14:21:42;100507.97;;;28.44;37.13
29121;BME280;16191;49.548;8.658;2022-09-01T14:24:11;100504.34;;;28.20;37.29